createdAt,value
2023-05-09T00:01:12.832Z,5.00
2023-05-09T00:06:15.483Z,5.35
2023-05-09T00:11:17.354Z,4.75
2023-05-09T00:16:20.586Z,4.75
2023-05-09T00:21:22.393Z,5.07
2023-05-09T00:26:24.145Z,5.57
2023-05-09T00:31:26.239Z,4.90
2023-05-09T00:36:28.068Z,4.65
2023-05-09T00:41:29.889Z,4.82
2023-05-09T00:46:32.063Z,4.05
2023-05-09T00:51:36.129Z,4.88
2023-05-09T00:56:37.878Z,5.45
2023-05-09T01:01:39.690Z,5.18
2023-05-09T01:07:11.440Z,5.13
2023-05-09T01:12:42.595Z,4.65
2023-05-09T01:17:59.843Z,4.80
2023-05-09T01:23:16.351Z,4.53
2023-05-09T01:28:52.682Z,5.15
2023-05-09T01:34:02.392Z,4.60
2023-05-09T01:39:05.827Z,5.07
2023-05-09T01:44:11.403Z,5.00
2023-05-09T01:49:13.936Z,4.53
2023-05-09T01:54:17.599Z,4.28
2023-05-09T01:59:20.385Z,5.10
2023-05-09T02:04:22.738Z,4.93
2023-05-09T02:09:24.627Z,4.32
2023-05-09T02:14:26.698Z,4.60
2023-05-09T02:19:28.543Z,4.60
2023-05-09T02:24:33.854Z,4.40
2023-05-09T02:29:41.939Z,4.63
2023-05-09T02:39:45.989Z,4.13
2023-05-09T02:44:47.726Z,4.22
2023-05-09T02:49:50.904Z,4.55
2023-05-09T02:54:52.826Z,4.00
2023-05-09T02:59:54.612Z,4.30
2023-05-09T03:04:57.549Z,3.45
2023-05-09T03:09:59.420Z,4.35
2023-05-09T03:15:01.646Z,3.85
2023-05-09T03:20:05.772Z,3.90
2023-05-09T03:25:08.176Z,3.85
2023-05-09T03:30:10.897Z,4.10
2023-05-09T03:35:13.114Z,3.72
2023-05-09T03:40:15.559Z,4.10
2023-05-09T03:45:36.510Z,3.97
2023-05-09T03:50:38.630Z,4.32
2023-05-09T03:55:41.007Z,4.10
2023-05-09T04:00:43.812Z,4.00
2023-05-09T04:11:04.611Z,3.88
2023-05-09T04:16:06.827Z,4.13
2023-05-09T04:21:09.537Z,4.32
2023-05-09T04:26:13.491Z,4.15
2023-05-09T04:31:17.525Z,3.90
2023-05-09T04:36:23.029Z,4.00
2023-05-09T04:41:25.043Z,4.22
2023-05-09T04:46:27.066Z,4.13
2023-05-09T04:51:29.817Z,4.43
2023-05-09T04:56:31.654Z,3.88
2023-05-09T05:01:35.856Z,4.25
2023-05-09T05:06:37.923Z,3.90
2023-05-09T05:11:41.544Z,3.58
2023-05-09T05:16:46.923Z,3.55
2023-05-09T05:21:49.041Z,3.05
2023-05-09T05:26:52.139Z,3.08
2023-05-09T05:31:54.314Z,2.72
2023-05-09T05:36:56.852Z,2.83
2023-05-09T05:41:58.845Z,2.45
2023-05-09T05:47:00.922Z,2.50
2023-05-09T05:52:02.979Z,2.40
2023-05-09T05:57:05.192Z,2.78
2023-05-09T06:02:07.169Z,3.15
2023-05-09T06:07:12.687Z,2.60
2023-05-09T06:12:17.013Z,3.45
2023-05-09T06:17:19.097Z,2.85
2023-05-09T06:22:21.053Z,2.97
2023-05-09T06:27:23.142Z,3.22
2023-05-09T06:32:25.700Z,3.78
2023-05-09T06:37:27.533Z,3.45
2023-05-09T06:42:30.056Z,3.30
2023-05-09T06:47:31.930Z,3.63
2023-05-09T06:52:33.707Z,3.17
2023-05-09T06:57:35.613Z,3.25
2023-05-09T07:02:41.745Z,3.47
2023-05-09T07:07:43.891Z,4.18
2023-05-09T07:12:45.625Z,3.75
2023-05-09T07:17:47.463Z,3.63
2023-05-09T07:22:49.320Z,3.03
2023-05-09T07:27:51.182Z,3.55
2023-05-09T07:32:53.109Z,3.58
2023-05-09T07:37:54.919Z,4.22
2023-05-09T07:42:56.818Z,4.25
2023-05-09T07:47:58.699Z,3.90
2023-05-09T07:53:00.560Z,4.25
2023-05-09T07:58:02.325Z,3.70
2023-05-09T08:03:04.278Z,3.72
2023-05-09T08:08:06.348Z,4.03
2023-05-09T08:13:08.227Z,4.00
2023-05-09T08:18:10.215Z,3.65
2023-05-09T08:23:12.244Z,3.97
2023-05-09T08:28:14.047Z,4.55
2023-05-09T08:33:15.830Z,3.72
2023-05-09T08:38:17.650Z,4.38
2023-05-09T08:43:23.682Z,5.13
2023-05-09T08:48:26.807Z,4.82
2023-05-09T08:53:28.913Z,5.35
2023-05-09T08:58:31.696Z,5.20
2023-05-09T09:03:33.684Z,5.45
2023-05-09T09:08:36.067Z,5.60
2023-05-09T09:13:40.535Z,5.40
2023-05-09T09:18:42.698Z,5.40
2023-05-09T09:23:47.340Z,4.97
2023-05-09T09:28:49.093Z,5.30
2023-05-09T09:33:51.771Z,5.05
2023-05-09T09:38:58.522Z,5.68
2023-05-09T09:44:09.953Z,5.25
2023-05-09T09:49:13.456Z,4.85
2023-05-09T09:54:15.292Z,5.20
2023-05-09T09:59:19.053Z,5.03
2023-05-09T10:04:21.187Z,5.38
2023-05-09T10:09:24.108Z,4.97
2023-05-09T10:14:26.583Z,5.07
2023-05-09T10:19:29.872Z,4.97
2023-05-09T10:24:56.902Z,4.47
2023-05-09T10:30:08.740Z,4.07
2023-05-09T10:35:11.626Z,4.65
2023-05-09T10:40:16.151Z,4.47
2023-05-09T10:45:18.325Z,4.70
2023-05-09T10:50:21.448Z,3.63
2023-05-09T10:55:25.079Z,4.45
2023-05-09T11:00:27.183Z,4.30
2023-05-09T11:05:39.495Z,4.90
2023-05-09T11:10:42.947Z,4.20
2023-05-09T11:15:52.510Z,3.95
2023-05-09T11:20:55.152Z,4.13
2023-05-09T11:26:08.758Z,4.05
2023-05-09T11:31:18.453Z,4.20
2023-05-09T11:36:29.586Z,4.45
2023-05-09T11:41:31.512Z,3.92
2023-05-09T11:46:33.391Z,3.85
2023-05-09T11:51:38.523Z,4.43
2023-05-09T11:56:41.548Z,3.78
2023-05-09T12:01:43.356Z,3.60
2023-05-09T12:06:48.801Z,4.35
2023-05-09T12:11:50.874Z,4.38
2023-05-09T12:16:52.617Z,3.10
2023-05-09T12:21:59.307Z,3.00
2023-05-09T12:27:01.989Z,3.00
2023-05-09T12:32:04.024Z,3.85
2023-05-09T12:37:18.235Z,3.90
2023-05-09T12:42:20.122Z,3.58
2023-05-09T12:47:21.990Z,3.20
2023-05-09T12:52:23.851Z,3.67
2023-05-09T12:57:29.492Z,2.97
2023-05-09T13:02:41.573Z,3.23
2023-05-09T13:07:45.425Z,3.28
2023-05-09T13:12:49.105Z,3.00
2023-05-09T13:17:52.125Z,3.30
2023-05-09T13:22:54.295Z,3.00
2023-05-09T13:27:56.022Z,3.75
2023-05-09T13:33:00.378Z,3.08
2023-05-09T13:38:05.836Z,3.40
2023-05-09T13:43:07.617Z,3.28
2023-05-09T13:48:09.645Z,3.03
2023-05-09T13:53:11.677Z,2.83
2023-05-09T13:58:13.429Z,3.20
2023-05-09T14:03:15.526Z,3.15
2023-05-09T14:08:17.528Z,2.90
2023-05-09T14:13:19.486Z,3.42
2023-05-09T14:18:21.375Z,2.80
2023-05-09T14:23:23.275Z,3.03
2023-05-09T14:28:25.037Z,3.03
2023-05-09T14:33:27.925Z,3.33
2023-05-09T14:38:29.768Z,2.85
2023-05-09T14:43:31.655Z,2.90
2023-05-09T14:48:36.722Z,2.50
2023-05-09T14:53:42.208Z,3.10
2023-05-09T14:58:43.987Z,2.90
2023-05-09T15:03:47.922Z,2.80
2023-05-09T15:08:49.721Z,2.92
2023-05-09T15:13:53.321Z,2.50
2023-05-09T15:18:55.067Z,2.88
2023-05-09T15:23:57.398Z,3.00
2023-05-09T15:28:59.242Z,2.85
2023-05-09T15:34:01.505Z,2.70
2023-05-09T15:39:05.081Z,2.75
2023-05-09T15:44:07.289Z,2.90
2023-05-09T15:49:09.085Z,2.85
2023-05-09T15:54:10.870Z,3.20
2023-05-09T15:59:12.616Z,3.05
2023-05-09T16:04:14.426Z,3.10
2023-05-09T16:09:16.189Z,3.20
2023-05-09T16:14:18.242Z,3.22
2023-05-09T16:19:20.138Z,3.53
2023-05-09T16:24:22.073Z,3.08
2023-05-09T16:29:23.938Z,3.40
2023-05-09T16:34:25.803Z,3.10
2023-05-09T16:39:28.070Z,3.28
2023-05-09T16:44:29.977Z,2.75
2023-05-09T16:49:31.792Z,2.88
2023-05-09T16:54:33.668Z,3.15
2023-05-09T16:59:35.579Z,3.67
2023-05-09T17:04:38.002Z,3.65
2023-05-09T17:09:40.209Z,3.25
2023-05-09T17:14:41.952Z,3.78
2023-05-09T17:19:44.280Z,3.30
2023-05-09T17:24:46.233Z,2.95
2023-05-09T17:29:48.017Z,3.45
2023-05-09T17:34:50.107Z,2.90
2023-05-09T17:39:51.875Z,2.85
2023-05-09T17:44:53.604Z,3.20
2023-05-09T17:49:55.438Z,3.13
2023-05-09T17:54:57.274Z,3.25
2023-05-09T18:00:00.285Z,3.33
2023-05-09T18:05:02.283Z,4.03
2023-05-09T18:10:04.826Z,3.38
2023-05-09T18:15:07.344Z,3.20
2023-05-09T18:20:09.416Z,3.60
2023-05-09T18:25:11.469Z,3.33
2023-05-09T18:30:13.539Z,3.53
2023-05-09T18:35:16.024Z,3.40
2023-05-09T18:40:17.970Z,5.93
2023-05-09T18:45:19.785Z,3.63
2023-05-09T18:50:21.740Z,3.80
2023-05-09T18:55:24.142Z,3.72
2023-05-09T19:00:26.204Z,3.95
2023-05-09T19:05:28.242Z,5.15
2023-05-09T19:10:30.123Z,3.92
2023-05-09T19:15:32.030Z,4.20
2023-05-09T19:20:34.128Z,3.90
2023-05-09T19:25:37.094Z,3.88
2023-05-09T19:30:39.073Z,4.07
2023-05-09T19:35:44.567Z,3.47
2023-05-09T19:40:46.310Z,3.80
2023-05-09T19:45:48.222Z,3.85
2023-05-09T19:50:55.688Z,3.38
2023-05-09T19:55:57.823Z,4.03
2023-05-09T20:00:59.701Z,3.60
2023-05-09T20:06:01.538Z,3.75
2023-05-09T20:11:03.334Z,3.80
2023-05-09T20:16:05.731Z,3.33
2023-05-09T20:21:09.765Z,3.83
2023-05-09T20:26:11.618Z,3.67
2023-05-09T20:31:13.648Z,3.30
2023-05-09T20:36:16.042Z,3.65
2023-05-09T20:41:18.081Z,3.40
2023-05-09T20:46:20.167Z,3.55
2023-05-09T20:51:26.494Z,4.25
2023-05-09T20:56:29.059Z,3.35
2023-05-09T21:01:32.492Z,3.38
2023-05-09T21:06:37.528Z,3.25
2023-05-09T21:11:39.694Z,3.33
2023-05-09T21:16:43.876Z,3.25
2023-05-09T21:21:45.828Z,3.25
2023-05-09T21:26:47.629Z,3.22
2023-05-09T21:31:49.431Z,3.50
2023-05-09T21:36:51.154Z,3.47
2023-05-09T21:41:52.945Z,3.30
2023-05-09T21:46:54.755Z,2.97
2023-05-09T21:51:56.588Z,2.97
2023-05-09T21:56:58.407Z,3.47
2023-05-09T22:02:00.223Z,3.45
2023-05-09T22:07:02.043Z,3.60
2023-05-09T22:12:04.444Z,3.53
2023-05-09T22:17:07.258Z,3.90
2023-05-09T22:22:09.075Z,3.95
2023-05-09T22:27:11.378Z,4.03
2023-05-09T22:32:14.011Z,4.43
2023-05-09T22:37:16.101Z,4.00
2023-05-09T22:42:20.669Z,4.15
2023-05-09T22:47:22.524Z,3.72
2023-05-09T22:52:24.321Z,3.88
2023-05-09T22:57:26.200Z,3.90
2023-05-09T23:02:28.092Z,4.45
2023-05-09T23:07:30.014Z,4.80
2023-05-09T23:12:31.976Z,4.22
2023-05-09T23:17:33.823Z,4.30
2023-05-09T23:22:35.622Z,4.35
2023-05-09T23:27:40.451Z,4.10
2023-05-09T23:32:42.505Z,4.03
2023-05-09T23:37:44.250Z,4.45
2023-05-09T23:42:46.262Z,4.47
2023-05-09T23:47:48.014Z,4.28
2023-05-09T23:52:51.025Z,4.80
2023-05-09T23:57:52.803Z,5.15
